Time;durP1;ratioP1;P1;durP2;ratioP2;P2;SDS_P1;SDS_P2;PMS_P1;PMS_P2;Temp;Humidity;BMP_temperature;BMP_pressure;BME280_temperature;BME280_humidity;BME280_pressure;Samples;Min_cycle;Max_cycle;Signal;HPM_P1;HPM_P2
2020/12/24 00:01:10;;;;;;;;;;;;;;;2.61;100.00;93540.16;6184758;23;20017;-88
2020/12/24 00:03:36;;;;;;;35.25;16.70;;;;;;;2.67;100.00;93533.69;6183744;23;19919;-89
2020/12/24 00:06:03;;;;;;;29.50;13.27;;;;;;;2.82;100.00;93538.97;6183999;23;20311;-89
2020/12/24 00:08:29;;;;;;;;;;;;;;;3.00;100.00;93545.69;6184470;23;20095;-88
2020/12/24 00:10:55;;;;;;;62.95;28.70;;;;;;;2.81;100.00;93550.06;6184333;23;19912;-89
2020/12/24 00:13:22;;;;;;;76.03;32.92;;;;;;;2.23;100.00;93552.34;6183386;23;20017;-89
2020/12/24 00:15:48;;;;;;;64.28;28.85;;;;;;;2.12;100.00;93551.66;6183552;23;20028;-88
2020/12/24 00:18:14;;;;;;;;;;;;;;;2.05;100.00;93550.66;6184273;23;20013;-89
2020/12/24 00:20:41;;;;;;;36.60;19.88;;;;;;;1.99;100.00;93549.50;6183546;23;19919;-89
2020/12/24 00:23:07;;;;;;;;;;;;;;;2.06;100.00;93544.63;6183749;23;20013;-89
2020/12/24 00:25:33;;;;;;;26.15;14.38;;;;;;;2.08;100.00;93540.22;6183091;23;19912;-90
2020/12/24 00:27:59;;;;;;;;;;;;;;;2.12;100.00;93536.44;6184172;23;20025;-89
2020/12/24 00:30:26;;;;;;;35.30;16.80;;;;;;;2.13;100.00;93538.03;6183474;23;19917;-89
2020/12/24 00:32:52;;;;;;;31.75;18.33;;;;;;;2.10;100.00;93540.06;6183880;23;20013;-89
2020/12/24 00:35:18;;;;;;;;;;;;;;;2.13;100.00;93542.31;6184190;23;20017;-90
2020/12/24 00:37:45;;;;;;;47.63;22.15;;;;;;;1.98;100.00;93532.72;6183254;23;19912;-89
2020/12/24 00:40:11;;;;;;;;;;;;;;;2.09;100.00;93541.00;6184110;23;20071;-88
2020/12/24 00:42:37;;;;;;;46.78;22.83;;;;;;;1.78;100.00;93552.38;6183154;23;19916;-89
2020/12/24 00:45:03;;;;;;;;;;;;;;;1.57;100.00;93552.69;6183683;23;20017;-89
2020/12/24 00:47:30;;;;;;;40.72;21.55;;;;;;;1.44;100.00;93553.81;6183370;23;19912;-89
2020/12/24 00:49:57;;;;;;;57.90;24.88;;;;;;;1.38;100.00;93559.47;6183484;23;20013;-90
2020/12/24 00:52:22;;;;;;;;;;;;;;;1.20;100.00;93554.38;6183803;23;20043;-89
2020/12/24 00:54:49;;;;;;;54.33;22.42;;;;;;;1.01;100.00;93556.09;6183381;23;19923;-88
2020/12/24 00:57:15;;;;;;;;;;;;;;;1.09;100.00;93560.47;6183773;23;20450;-90
2020/12/24 00:59:41;;;;;;;39.72;19.65;;;;;;;0.79;100.00;93554.78;6183206;23;19919;-89
2020/12/24 01:02:08;;;;;;;;;;;;;;;0.62;100.00;93551.25;6186281;23;20025;-90
2020/12/24 01:04:35;;;;;;;31.95;16.02;;;;;;;0.67;100.00;93549.09;6185416;23;19947;-89
2020/12/24 01:07:01;;;;;;;39.20;16.30;;;;;;;0.71;100.00;93552.16;6185408;23;20025;-89
2020/12/24 01:09:27;;;;;;;;;;;;;;;0.75;100.00;93559.31;6186338;23;20017;-90
2020/12/24 01:11:53;;;;;;;32.72;14.88;;;;;;;0.75;100.00;93554.25;6185569;23;20371;-90
2020/12/24 01:14:19;;;;;;;;;;;;;;;0.66;100.00;93550.81;6186079;23;20012;-90
2020/12/24 01:16:46;;;;;;;24.85;14.93;;;;;;;0.53;100.00;93537.72;6185824;23;19958;-90
2020/12/24 01:19:12;;;;;;;;;;;;;;;0.57;100.00;93546.63;6190009;23;20017;-91
2020/12/24 01:21:44;;;;;;;23.73;13.60;;;;;;;0.53;100.00;93546.13;6188657;23;19962;-90
2020/12/24 01:24:10;;;;;;;25.17;14.13;;;;;;;0.53;100.00;93542.78;6188405;23;20036;-89
2020/12/24 01:26:36;;;;;;;;;;;;;;;0.62;100.00;93536.91;6185456;23;20438;-89
2020/12/24 01:29:03;;;;;;;28.67;15.95;;;;;;;0.59;100.00;93536.34;6185335;23;19916;-89
2020/12/24 01:31:29;;;;;;;;;;;;;;;0.65;100.00;93534.06;6185245;23;20013;-89
2020/12/24 01:33:55;;;;;;;22.00;12.60;;;;;;;0.68;100.00;93532.22;6185154;23;19912;-90
2020/12/24 01:36:22;;;;;;;;;;;;;;;0.73;100.00;93528.31;6185908;23;20391;-87
2020/12/24 01:38:49;;;;;;;36.08;14.45;;;;;;;0.83;100.00;93524.94;6184677;23;19912;-89
2020/12/24 01:41:15;;;;;;;20.55;13.15;;;;;;;0.88;100.00;93526.09;6185010;23;20044;-90
2020/12/24 01:43:41;;;;;;;36.05;17.10;;;;;;;1.04;100.00;93525.47;6184905;23;20013;-88
2020/12/24 01:46:07;;;;;;;;;;;;;;;1.10;100.00;93518.25;6185898;23;20020;-89
2020/12/24 01:48:34;;;;;;;31.48;13.73;;;;;;;1.09;100.00;93519.19;6184737;23;20317;-89
2020/12/24 01:51:00;;;;;;;;;;;;;;;1.17;100.00;93514.22;6185312;23;20496;-89
2020/12/24 01:53:26;;;;;;;27.75;15.02;;;;;;;1.13;100.00;93515.44;6184785;23;19916;-89
2020/12/24 01:55:57;;;;;;;45.17;18.50;;;;;;;0.96;100.00;93514.50;6185066;23;20036;-89
2020/12/24 01:58:24;;;;;;;35.72;15.98;;;;;;;0.78;100.00;93513.50;6185289;23;20013;-90
2020/12/24 02:00:50;;;;;;;33.88;13.98;;;;;;;0.53;100.00;93515.78;6185092;23;20411;-88
2020/12/24 02:03:17;;;;;;;33.72;14.57;;;;;;;0.34;100.00;93483.00;6185131;23;20410;-90
2020/12/24 02:05:44;;;;;;;33.13;15.63;;;;;;;0.39;100.00;93504.41;6184983;23;20711;-89
2020/12/24 02:08:11;;;;;;;25.83;14.90;;;;;;;0.13;100.00;93492.41;6184623;23;20017;-89
2020/12/24 02:10:37;;;;;;;30.58;13.90;;;;;;;0.08;100.00;93503.84;6185319;23;20019;-89
2020/12/24 02:13:04;;;;;;;21.05;12.65;;;;;;;0.04;100.00;93489.91;6184581;23;20017;-89
2020/12/24 02:15:30;;;;;;;19.45;11.25;;;;;;;0.10;100.00;93507.03;6184543;23;20545;-90
2020/12/24 02:17:56;;;;;;;;;;;;;;;0.07;100.00;93509.81;6185920;23;20013;-90
2020/12/24 02:20:23;;;;;;;33.65;15.07;;;;;;;0.10;100.00;93499.47;6185123;23;19912;-91
2020/12/24 02:22:50;;;;;;;26.77;11.85;;;;;;;0.26;100.00;93503.91;6184978;23;20442;-89
2020/12/24 02:25:16;;;;;;;22.02;12.70;;;;;;;0.11;100.00;93506.09;6184571;23;20013;-89
2020/12/24 02:27:42;;;;;;;;;;;;;;;0.08;100.00;93506.34;6185310;23;20024;-89
2020/12/24 02:30:08;;;;;;;17.58;9.32;;;;;;;0.13;100.00;93506.75;6184936;23;19912;-89
2020/12/24 02:32:34;;;;;;;;;;;;;;;-0.08;100.00;93502.72;6185496;23;20083;-89
2020/12/24 02:35:01;;;;;;;13.63;9.05;;;;;;;0.06;100.00;93498.13;6184729;23;19916;-88
2020/12/24 02:37:27;;;;;;;;;;;;;;;-0.03;100.00;93505.63;6184801;23;20017;-90
2020/12/24 02:39:54;;;;;;;14.68;9.32;;;;;;;-0.06;100.00;93502.53;6184901;23;19919;-89
2020/12/24 02:42:20;;;;;;;17.77;10.52;;;;;;;-0.06;100.00;93503.34;6185352;23;20063;-90
2020/12/24 02:44:47;;;;;;;21.25;8.18;;;;;;;-0.17;100.00;93486.66;6184757;23;20013;-90
2020/12/24 02:47:13;;;;;;;22.05;12.85;;;;;;;-0.20;100.00;93497.00;6185487;23;20025;-89
2020/12/24 02:49:39;;;;;;;;;;;;;;;-0.15;100.00;93491.53;6185603;23;20472;-90
2020/12/24 02:52:06;;;;;;;15.07;8.52;;;;;;;-0.31;100.00;93487.06;6184837;23;19916;-89
2020/12/24 02:54:32;;;;;;;27.38;10.73;;;;;;;-0.27;100.00;93493.44;6185474;23;20036;-89
2020/12/24 02:57:00;;;;;;;17.35;10.43;;;;;;;-0.04;100.00;93493.13;6184957;23;20013;-90
2020/12/24 02:59:27;;;;;;;18.35;10.65;;;;;;;0.10;100.00;93490.13;6185319;23;20017;-89
2020/12/24 03:01:53;;;;;;;36.88;13.77;;;;;;;0.32;100.00;93487.41;6184727;23;20460;-89
2020/12/24 03:04:19;;;;;;;25.48;11.40;;;;;;;0.23;100.00;93446.09;6185354;23;20438;-89
2020/12/24 03:06:46;;;;;;;21.90;10.88;;;;;;;0.69;100.00;93488.28;6185730;23;20438;-88
2020/12/24 03:09:12;;;;;;;25.40;10.48;;;;;;;0.83;100.00;93487.78;6185199;23;20471;-89
2020/12/24 03:11:49;;;;;;;21.23;11.35;;;;;;;0.97;100.00;93481.44;6185984;23;20017;-89
2020/12/24 03:14:17;;;;;;;24.40;11.02;;;;;;;1.09;100.00;93484.56;6185632;23;20064;-90
2020/12/24 03:16:43;;;;;;;26.23;11.52;;;;;;;1.16;100.00;93492.38;6186228;23;20338;-89
2020/12/24 03:19:09;;;;;;;;;;;;;;;1.26;100.00;93489.78;6186406;23;20013;-89
2020/12/24 03:21:36;;;;;;;19.23;10.60;;;;;;;1.27;100.00;93493.88;6185239;23;20218;-89
2020/12/24 03:24:02;;;;;;;;;;;;;;;1.27;100.00;93496.41;6185845;23;20047;-89
2020/12/24 03:26:28;;;;;;;15.65;9.15;;;;;;;1.20;100.00;93491.94;6184760;23;19913;-88
2020/12/24 03:28:54;;;;;;;;;;;;;;;1.16;100.00;93489.84;6185147;23;20013;-89
2020/12/24 03:31:23;;;;;;;18.08;10.68;;;;;;;1.05;100.00;93484.06;6184814;23;19920;-89
2020/12/24 03:33:50;;;;;;;17.88;9.57;;;;;;;1.09;100.00;93492.16;6184912;23;20013;-90
2020/12/24 03:36:16;;;;;;;22.85;7.45;;;;;;;1.09;100.00;93492.16;6184296;23;20017;-91
2020/12/24 03:38:43;;;;;;;21.48;8.40;;;;;;;1.14;100.00;93486.66;6185141;23;20013;-90
2020/12/24 03:41:10;;;;;;;25.38;12.02;;;;;;;1.24;100.00;93484.84;6184601;23;20017;-89
2020/12/24 03:43:36;;;;;;;27.75;12.48;;;;;;;1.21;100.00;93487.69;6184427;23;20468;-90
2020/12/24 03:46:02;;;;;;;;;;;;;;;1.10;100.00;93483.63;6185423;23;20024;-90
2020/12/24 03:48:29;;;;;;;28.67;11.57;;;;;;;1.03;100.00;93496.03;6184846;23;20276;-92
2020/12/24 03:50:56;;;;;;;17.85;10.48;;;;;;;1.00;100.00;93488.75;6184283;23;20358;-89
2020/12/24 03:53:22;;;;;;;;;;;;;;;0.81;100.00;93494.72;6185297;23;20017;-90
2020/12/24 03:55:48;;;;;;;17.10;8.98;;;;;;;0.91;100.00;93500.53;6184616;23;19919;-90
2020/12/24 03:58:15;;;;;;;23.20;11.27;;;;;;;1.08;100.00;93500.69;6184723;23;20024;-89
2020/12/24 04:00:41;;;;;;;;;;;;;;;1.19;100.00;93502.19;6185461;23;20020;-90
2020/12/24 04:03:07;;;;;;;17.83;9.70;;;;;;;1.29;100.00;93500.38;6184470;23;19916;-89
2020/12/24 04:05:34;;;;;;;31.58;12.13;;;;;;;1.38;100.00;93493.66;6184882;23;20017;-88
2020/12/24 04:08:01;;;;;;;19.70;11.88;;;;;;;1.48;100.00;93497.84;6185250;23;20076;-89
2020/12/24 04:10:27;;;;;;;19.90;9.45;;;;;;;1.60;100.00;93494.13;6184820;23;20017;-89
2020/12/24 04:12:53;;;;;;;;;;;;;;;1.63;100.00;93491.31;6184394;23;20346;-89
2020/12/24 04:15:20;;;;;;;24.90;12.00;;;;;;;1.65;100.00;93493.69;6186354;23;19935;-89
2020/12/24 04:17:46;;;;;;;19.10;10.65;;;;;;;1.67;100.00;93485.00;6184347;23;20020;-89
2020/12/24 04:20:12;;;;;;;;;;;;;;;1.69;100.00;93493.25;6184832;23;20441;-89
2020/12/24 04:22:39;;;;;;;26.33;12.63;;;;;;;1.65;100.00;93496.22;6184291;23;20340;-90
2020/12/24 04:25:05;;;;;;;31.05;12.23;;;;;;;1.59;100.00;93495.09;6184196;23;20064;-89
2020/12/24 04:27:31;;;;;;;;;;;;;;;1.53;100.00;93496.47;6184811;23;20017;-89
2020/12/24 04:29:58;;;;;;;28.95;12.13;;;;;;;1.46;100.00;93493.72;6184054;23;19919;-89
2020/12/24 04:32:24;;;;;;;19.13;10.80;;;;;;;1.47;100.00;93497.03;6184188;23;20017;-89
2020/12/24 04:34:50;;;;;;;;;;;;;;;1.41;100.00;93492.56;6185361;23;20173;-90
2020/12/24 04:37:18;;;;;;;25.40;13.27;;;;;;;1.35;100.00;93496.50;6184277;23;19919;-90
2020/12/24 04:39:46;;;;;;;24.27;11.55;;;;;;;1.33;100.00;93493.28;6184830;23;20054;-90
2020/12/24 04:42:13;;;;;;;29.60;14.23;;;;;;;1.29;100.00;93484.44;6184320;23;20473;-91
2020/12/24 04:44:41;;;;;;;35.50;18.55;;;;;;;1.32;100.00;93491.72;6184215;23;20100;-90
2020/12/24 04:47:08;;;;;;;39.33;18.17;;;;;;;1.29;100.00;93489.50;6184049;23;20016;-91
2020/12/24 04:49:35;;;;;;;31.90;16.13;;;;;;;1.25;100.00;93473.00;6184391;23;20017;-90
2020/12/24 04:52:02;;;;;;;31.98;12.48;;;;;;;1.38;100.00;93488.59;6184668;23;20013;-90
2020/12/24 04:54:28;;;;;;;18.60;10.38;;;;;;;1.39;100.00;93474.22;6184975;23;20071;-89
2020/12/24 04:57:06;;;;;;;19.73;9.10;;;;;;;1.40;100.00;93476.59;6185929;23;20027;-90
2020/12/24 04:59:32;;;;;;;25.98;10.57;;;;;;;1.40;100.00;93474.06;6185063;23;20036;-90
2020/12/24 05:02:00;;;;;;;28.67;12.05;;;;;;;1.49;100.00;93469.06;6184592;23;20021;-88
2020/12/24 05:04:27;;;;;;;22.05;9.45;;;;;;;1.38;100.00;93439.72;6185952;23;20027;-89
2020/12/24 05:07:40;;;;;;;24.25;10.05;;;;;;;1.59;100.00;93472.28;6187640;23;20017;-90
2020/12/24 05:10:46;;;;;;;23.17;12.43;;;;;;;1.58;100.00;93471.50;6185822;23;20435;-90
2020/12/24 05:13:18;;;;;;;30.02;15.35;;;;;;;1.62;100.00;93461.09;6185125;23;20013;-90
2020/12/24 05:15:45;;;;;;;39.35;13.13;;;;;;;1.63;100.00;93467.72;6185141;23;20040;-90
2020/12/24 05:18:18;;;;;;;31.42;14.68;;;;;;;1.63;100.00;93460.94;6185683;23;20449;-89
2020/12/24 05:20:45;;;;;;;28.02;13.15;;;;;;;1.53;100.00;93457.69;6185766;23;20017;-90
2020/12/24 05:23:12;;;;;;;23.63;10.30;;;;;;;1.57;100.00;93452.19;6185753;23;20052;-90
2020/12/24 05:25:39;;;;;;;21.73;13.43;;;;;;;1.52;100.00;93453.59;6185489;23;20075;-90
2020/12/24 05:28:06;;;;;;;22.60;11.35;;;;;;;1.52;100.00;93454.38;6188324;23;20017;-90
2020/12/24 05:30:34;;;;;;;27.63;13.00;;;;;;;1.49;100.00;93453.88;6187885;23;20021;-89
2020/12/24 05:33:01;;;;;;;31.42;14.82;;;;;;;1.30;100.00;93448.81;6184949;23;20022;-90
2020/12/24 05:35:31;;;;;;;41.58;15.68;;;;;;;1.31;100.00;93442.81;6185964;23;20017;-88
2020/12/24 05:37:57;;;;;;;46.42;20.33;;;;;;;1.35;100.00;93447.59;6188941;23;20014;-90
2020/12/24 05:40:24;;;;;;;;;;;;;;;1.39;100.00;93447.16;6185404;23;20013;-89
2020/12/24 05:42:55;;;;;;;29.92;16.25;;;;;;;1.28;100.00;93434.72;6188081;23;19916;-90
2020/12/24 05:45:23;;;;;;;50.58;20.23;;;;;;;1.24;100.00;93457.00;6187220;23;20053;-90
2020/12/24 05:50:44;;;;;;;44.60;21.05;;;;;;;1.38;100.00;93453.16;5132024;27;20328;-91
2020/12/24 05:53:11;;;;;;;44.30;21.75;;;;;;;1.44;100.00;93454.31;5130749;27;20035;-89
2020/12/24 05:55:39;;;;;;;34.58;19.98;;;;;;;1.40;100.00;93453.03;5130853;27;20043;-89
2020/12/24 05:58:08;;;;;;;29.08;16.35;;;;;;;1.23;100.00;93467.28;5130115;27;20047;-89
2020/12/24 06:00:36;;;;;;;41.20;14.93;;;;;;;0.87;100.00;93466.34;5130237;27;20050;-90
2020/12/24 06:03:15;;;;;;;22.38;11.75;;;;;;;0.63;100.00;93462.63;5130328;27;20036;-90
2020/12/24 06:05:57;;;;;;;20.98;10.63;;;;;;;0.68;100.00;93459.66;5129967;27;20047;-90
2020/12/24 06:08:26;;;;;;;21.65;9.95;;;;;;;0.46;100.00;93430.56;5129787;27;20047;-90
2020/12/24 06:11:07;;;;;;;24.35;9.73;;;;;;;0.75;100.00;93470.03;5130266;27;20040;-89
2020/12/24 06:13:39;;;;;;;20.67;11.52;;;;;;;0.86;100.00;93467.28;5129325;28;20141;-88
2020/12/24 06:16:07;;;;;;;18.27;11.07;;;;;;;1.04;100.00;93471.56;5129893;27;20043;-89
2020/12/24 06:18:35;;;;;;;31.95;13.48;;;;;;;1.21;100.00;93480.09;5130267;27;20047;-90
2020/12/24 06:21:03;;;;;;;30.17;13.68;;;;;;;1.14;100.00;93453.75;5131764;27;20064;-89
2020/12/24 06:23:33;;;;;;;22.52;11.95;;;;;;;1.39;100.00;93476.75;5131716;27;20044;-89
2020/12/24 06:26:04;;;;;;;20.80;12.50;;;;;;;1.45;100.00;93481.22;5132723;27;20061;-89
2020/12/24 06:28:34;;;;;;;26.65;13.27;;;;;;;1.46;100.00;93465.88;5131625;27;20051;-90
2020/12/24 06:31:02;;;;;;;24.98;11.07;;;;;;;1.53;100.00;93467.81;5129662;27;20362;-89
2020/12/24 06:33:30;;;;;;;19.45;12.18;;;;;;;1.54;100.00;93465.16;5132207;27;20062;-89
2020/12/24 06:35:57;;;;;;;19.23;10.38;;;;;;;1.51;100.00;93467.16;5130290;27;20040;-89
2020/12/24 06:38:46;;;;;;;25.52;10.23;;;;;;;1.46;100.00;93460.03;5129812;27;20394;-90
2020/12/24 06:41:23;;;;;;;27.35;13.20;;;;;;;1.50;100.00;93461.31;5131050;27;20039;-89
2020/12/24 06:43:50;;;;;;;36.05;14.68;;;;;;;1.55;100.00;93471.81;5130206;27;20426;-90
2020/12/24 06:46:16;;;;;;;34.72;13.65;;;;;;;1.56;100.00;93452.31;5131102;28;20039;-90
2020/12/24 06:48:58;;;;;;;20.17;11.68;;;;;;;1.65;100.00;93468.38;5129865;27;20061;-90
2020/12/24 06:51:24;;;;;;;32.33;17.25;;;;;;;1.75;100.00;93473.34;5130921;27;20047;-91
2020/12/24 06:54:23;;;;;;;43.58;19.48;;;;;;;1.94;100.00;93474.91;5130939;27;20065;-91
2020/12/24 06:56:50;;;;;;;21.80;12.35;;;;;;;1.86;100.00;93468.03;5130957;27;20036;-90
2020/12/24 06:59:27;;;;;;;27.98;13.90;;;;;;;1.58;100.00;93473.25;5131633;27;20381;-90
2020/12/24 07:02:24;;;;;;;29.27;14.15;;;;;;;1.67;100.00;93471.56;5118645;27;20081;-90
2020/12/24 07:04:51;;;;;;;23.10;11.80;;;;;;;1.78;100.00;93465.44;5118270;28;20040;-90
2020/12/24 07:14:02;;;;;;;23.25;11.73;;;;;;;1.48;100.00;93465.72;5074043;28;20521;-91
2020/12/24 07:19:50;;;;;;;26.35;12.32;;;;;;;1.88;100.00;93461.06;5094004;28;20038;-90
2020/12/24 07:22:18;;;;;;;17.52;10.93;;;;;;;1.84;100.00;93467.38;5094343;28;20040;-90
2020/12/24 07:24:47;;;;;;;27.27;14.00;;;;;;;1.95;100.00;93477.25;5094713;28;20047;-91
2020/12/24 07:30:35;;;;;;;32.67;14.32;;;;;;;2.18;100.00;93475.97;5093552;28;20092;-89
2020/12/24 07:33:01;;;;;;;33.42;16.20;;;;;;;2.30;100.00;93473.97;5094333;28;20056;-90
2020/12/24 07:35:48;;;;;;;;;;;;;;;2.35;100.00;93467.47;5094328;28;20121;-90
2020/12/24 07:38:14;;;;;;;24.25;13.90;;;;;;;2.23;100.00;93450.97;5093795;28;19969;-91
2020/12/24 07:40:41;;;;;;;;;;;;;;;2.23;100.00;93461.09;5106406;27;20039;-91
2020/12/24 07:43:08;;;;;;;33.75;14.20;;;;;;;2.24;100.00;93465.22;5150562;27;19922;-91
2020/12/24 07:45:35;;;;;;;24.52;11.63;;;;;;;2.07;100.00;93457.53;5150665;27;20068;-90
2020/12/24 07:48:02;;;;;;;35.25;14.88;;;;;;;2.06;100.00;93458.47;5145813;27;20054;-91
2020/12/24 07:50:31;;;;;;;;;;;;;;;2.18;100.00;93458.22;5137435;27;20043;-90
2020/12/24 07:52:58;;;;;;;28.80;14.90;;;;;;;2.24;100.00;93460.94;5136284;27;20318;-91
2020/12/24 07:55:24;;;;;;;;;;;;;;;2.36;100.00;93460.69;5136929;27;20477;-91
2020/12/24 07:57:50;;;;;;;30.50;12.80;;;;;;;2.43;100.00;93456.56;5135624;27;20261;-92
2020/12/24 08:00:17;;;;;;;;;;;;;;;2.57;100.00;93462.81;5135373;27;20065;-91
2020/12/24 08:02:44;;;;;;;27.05;14.15;;;;;;;2.52;100.00;93457.41;5135872;27;20373;-91
2020/12/24 08:05:22;;;;;;;37.83;18.40;;;;;;;2.51;100.00;93465.94;5136516;27;20096;-91
2020/12/24 08:07:52;;;;;;;37.50;17.60;;;;;;;2.03;100.00;93468.13;5135323;27;20047;-90
2020/12/24 08:10:18;;;;;;;34.20;17.77;;;;;;;2.33;100.00;93468.56;5136451;27;20126;-92
2020/12/24 08:12:44;;;;;;;;;;;;;;;2.48;100.00;93477.19;5135545;27;20051;-91
2020/12/24 08:15:15;;;;;;;30.80;16.60;;;;;;;2.58;100.00;93464.38;5135520;27;19921;-91
2020/12/24 08:17:49;;;;;;;34.90;17.55;;;;;;;2.67;100.00;93467.72;5135694;27;20066;-90
2020/12/24 08:20:17;;;;;;;28.85;16.15;;;;;;;2.92;100.00;93457.66;5136404;27;20039;-91
2020/12/24 08:22:49;;;;;;;31.75;15.13;;;;;;;3.09;100.00;93455.91;5136124;27;20043;-91
2020/12/24 08:25:17;;;;;;;28.95;14.48;;;;;;;3.31;100.00;93458.78;5137065;27;20039;-90
2020/12/24 08:27:45;;;;;;;35.63;16.30;;;;;;;3.45;100.00;93462.44;5135909;27;20042;-91
2020/12/24 08:30:27;;;;;;;52.53;21.30;;;;;;;3.55;100.00;93458.00;5135674;27;20035;-91
2020/12/24 08:32:54;;;;;;;37.85;18.05;;;;;;;3.67;100.00;93462.75;5136188;27;20039;-91
2020/12/24 08:35:21;;;;;;;41.63;22.08;;;;;;;3.79;100.00;93458.91;5135804;27;20054;-91
2020/12/24 08:40:53;;;;;;;62.85;22.70;;;;;;;3.64;100.00;93457.97;5135290;27;19911;-91
2020/12/24 08:43:19;;;;;;;;;;;;;;;3.63;100.00;93458.94;5135905;27;20050;-90
2020/12/24 08:45:47;;;;;;;41.35;20.15;;;;;;;3.73;100.00;93446.84;5135508;27;19915;-91
2020/12/24 08:48:31;;;;;;;49.67;23.73;;;;;;;3.77;100.00;93447.31;5135282;27;20048;-90
2020/12/24 08:50:57;;;;;;;46.55;21.70;;;;;;;3.81;100.00;93441.78;5135124;27;20051;-91
2020/12/24 08:53:24;;;;;;;;;;;;;;;3.59;100.00;93441.47;5135913;27;20042;-90
2020/12/24 08:55:51;;;;;;;47.30;21.25;;;;;;;3.67;100.00;93444.97;5136169;27;19915;-90
2020/12/24 08:58:17;;;;;;;55.42;24.13;;;;;;;3.66;100.00;93441.63;5136069;27;20480;-90
2020/12/24 09:00:43;;;;;;;;;;;;;;;3.56;100.00;93433.41;5136663;27;20039;-90
2020/12/24 09:03:25;;;;;;;49.83;23.33;;;;;;;3.72;100.00;93432.56;5135155;27;19916;-90
2020/12/24 09:05:53;;;;;;;48.42;24.08;;;;;;;3.71;100.00;93400.50;5136129;27;20046;-90
2020/12/24 09:08:25;;;;;;;58.55;23.90;;;;;;;3.99;100.00;93413.59;5137058;27;20039;-91
2020/12/24 09:10:52;;;;;;;43.47;18.95;;;;;;;4.17;100.00;93412.56;5134506;27;20054;-91
2020/12/24 09:13:18;;;;;;;;;;;;;;;4.29;100.00;93410.47;5134452;27;20043;-90
2020/12/24 09:15:44;;;;;;;48.42;19.20;;;;;;;4.33;100.00;93408.38;5134158;27;19915;-89
2020/12/24 09:18:11;;;;;;;58.17;22.70;;;;;;;4.36;100.00;93373.22;5136533;27;20096;-90
2020/12/24 09:20:38;;;;;;;47.95;24.55;;;;;;;4.68;100.00;93393.59;5145939;27;20038;-91
2020/12/24 09:23:10;;;;;;;40.40;20.98;;;;;;;4.75;100.00;93386.84;5154371;27;20049;-90
2020/12/24 09:25:39;;;;;;;44.13;21.80;;;;;;;4.58;100.00;93388.69;5154840;27;20043;-90
2020/12/24 09:28:17;;;;;;;49.40;22.05;;;;;;;4.52;100.00;93385.09;5155669;27;20038;-90
2020/12/24 09:30:43;;;;;;;46.75;22.25;;;;;;;4.72;100.00;93379.53;5154195;27;20042;-90
2020/12/24 09:33:10;;;;;;;55.33;25.10;;;;;;;4.87;100.00;93381.38;5155815;27;20045;-90
2020/12/24 09:35:36;;;;;;;;;;;;;;;5.05;100.00;93366.59;5157446;27;20045;-90
2020/12/24 09:38:02;;;;;;;43.83;22.45;;;;;;;4.95;100.00;93366.03;5155436;27;19931;-90
2020/12/24 09:40:30;;;;;;;54.72;25.52;;;;;;;5.10;100.00;93361.00;5154149;27;20038;-91
2020/12/24 09:42:56;;;;;;;39.13;19.17;;;;;;;5.25;100.00;93355.13;5153999;27;20422;-90
2020/12/24 09:45:23;;;;;;;;;;;;;;;5.15;100.00;93355.38;5154649;27;20065;-91
2020/12/24 09:47:50;;;;;;;27.17;12.60;;;;;;;5.18;100.00;93347.38;5153759;27;19915;-89
2020/12/24 09:50:17;;;;;;;24.15;12.00;;;;;;;5.43;100.00;93342.06;5153700;27;20100;-90
2020/12/24 09:52:43;;;;;;;;;;;;;;;5.21;100.00;93345.31;5154349;27;20091;-90
2020/12/24 09:55:09;;;;;;;19.42;11.77;;;;;;;5.12;100.00;93333.59;5154062;27;20269;-90
2020/12/24 09:57:36;;;;;;;;;;;;;;;5.51;100.00;93338.66;5154620;27;20100;-90
2020/12/24 10:00:05;;;;;;;25.35;12.02;;;;;;;5.59;100.00;93331.72;5153443;27;19919;-92
2020/12/24 10:02:31;;;;;;;22.98;11.65;;;;;;;5.79;100.00;93330.41;5153258;27;20043;-90
2020/12/24 10:04:57;;;;;;;;;;;;;;;5.85;100.00;93314.38;5154528;27;20050;-91
2020/12/24 10:07:23;;;;;;;21.23;11.10;;;;;;;5.86;100.00;93313.41;5153605;27;19940;-90
2020/12/24 10:09:50;;;;;;;;;;;;;;;5.94;100.00;93317.63;5154139;27;20362;-92
2020/12/24 10:12:18;;;;;;;27.35;11.98;;;;;;;6.08;100.00;93286.25;5153764;27;19915;-92
2020/12/24 10:14:46;;;;;;;28.00;12.95;;;;;;;6.31;100.00;93303.16;5141079;27;20039;-95
2020/12/24 10:17:12;;;;;;;23.15;12.68;;;;;;;6.25;99.48;93311.53;5132236;28;20047;-93
2020/12/24 10:19:38;;;;;;;;;;;;;;;6.26;98.76;93308.78;5132742;28;20167;-92
2020/12/24 10:22:05;;;;;;;31.65;12.95;;;;;;;5.99;100.00;93284.75;5132164;28;19916;-92
2020/12/24 10:24:31;;;;;;;24.77;12.02;;;;;;;6.00;99.69;93293.97;5132278;28;20043;-92
2020/12/24 10:26:57;;;;;;;;;;;;;;;5.92;100.00;93297.41;5132519;28;20046;-92
2020/12/24 10:29:23;;;;;;;26.60;12.77;;;;;;;5.94;100.00;93289.59;5131965;28;19923;-92
2020/12/24 10:31:50;;;;;;;34.40;15.10;;;;;;;5.96;100.00;93283.34;5132463;28;20050;-92
2020/12/24 10:34:17;;;;;;;34.92;16.90;;;;;;;5.98;100.00;93273.75;5132737;28;20040;-91
2020/12/24 10:36:43;;;;;;;;;;;;;;;5.96;100.00;93278.25;5136023;27;20050;-92
2020/12/24 10:39:10;;;;;;;33.17;19.80;;;;;;;5.83;100.00;93278.09;5136575;27;19964;-92
2020/12/24 10:41:37;;;;;;;34.20;18.77;;;;;;;6.09;100.00;93281.94;5137443;27;20043;-92
2020/12/24 10:44:04;;;;;;;47.45;23.33;;;;;;;6.34;100.00;93284.94;5137339;27;20473;-91
2020/12/24 10:46:30;;;;;;;37.53;21.67;;;;;;;6.27;99.40;93276.44;5136379;27;20047;-92
2020/12/24 10:48:58;;;;;;;41.85;22.48;;;;;;;5.88;100.00;93242.66;5136862;27;20384;-91
2020/12/24 10:51:24;;;;;;;39.75;21.25;;;;;;;5.92;100.00;93271.91;5137734;27;20091;-91
2020/12/24 10:53:50;;;;;;;45.85;21.88;;;;;;;5.93;100.00;93255.63;5137161;27;20500;-90
2020/12/24 10:56:49;;;;;;;;;;;;;;;5.86;100.00;93258.13;5139016;27;20050;-90
2020/12/24 10:59:17;;;;;;;47.55;23.38;;;;;;;5.41;100.00;93258.19;5138466;27;20245;-92
2020/12/24 11:01:45;;;;;;;48.25;24.75;;;;;;;5.40;100.00;93253.25;5137316;27;20134;-91
2020/12/24 11:04:13;;;;;;;46.08;24.77;;;;;;;5.45;100.00;93261.16;5137252;27;20083;-91
2020/12/24 11:06:42;;;;;;;53.28;22.92;;;;;;;5.45;100.00;93256.06;5137286;27;20093;-90
2020/12/24 11:09:08;;;;;;;59.45;26.55;;;;;;;5.44;100.00;93247.66;5136801;27;20378;-91
2020/12/24 11:11:45;;;;;;;37.53;21.85;;;;;;;5.50;100.00;93241.03;5137604;27;20036;-90
2020/12/24 11:14:11;;;;;;;59.13;28.67;;;;;;;5.80;100.00;93235.91;5137497;27;20039;-91
2020/12/24 11:16:38;;;;;;;47.75;23.08;;;;;;;5.93;100.00;93240.34;5136538;27;20054;-90
2020/12/24 11:19:05;;;;;;;47.90;24.15;;;;;;;6.18;100.00;93229.03;5137361;27;20035;-91
2020/12/24 11:21:33;;;;;;;36.25;19.27;;;;;;;6.37;100.00;93218.25;5137552;27;20039;-91
2020/12/24 11:24:04;;;;;;;32.28;15.25;;;;;;;6.47;100.00;93210.28;5136623;27;20542;-91
2020/12/24 11:26:31;;;;;;;25.35;12.82;;;;;;;6.63;100.00;93218.66;5137079;27;20038;-90
2020/12/24 11:28:57;;;;;;;33.50;17.45;;;;;;;6.72;100.00;93211.63;5136458;27;20461;-90
2020/12/24 11:31:25;;;;;;;28.10;14.23;;;;;;;6.53;100.00;93212.09;5137341;27;20070;-90
2020/12/24 11:33:51;;;;;;;34.80;19.20;;;;;;;6.74;100.00;93209.69;5137029;27;20047;-89
2020/12/24 11:36:18;;;;;;;42.45;19.17;;;;;;;6.92;100.00;93206.66;5135782;27;20050;-90
2020/12/24 11:38:45;;;;;;;41.05;21.30;;;;;;;7.03;98.73;93201.03;5136287;27;20537;-91
2020/12/24 11:41:15;;;;;;;42.97;19.75;;;;;;;6.87;97.83;93193.66;5136507;27;20089;-92
2020/12/24 11:43:41;;;;;;;44.05;21.90;;;;;;;6.78;99.37;93191.28;5136394;27;20121;-90
2020/12/24 11:46:09;;;;;;;41.28;21.20;;;;;;;6.85;99.38;93187.97;5136321;27;20039;-90
2020/12/24 11:48:35;;;;;;;43.33;23.42;;;;;;;7.07;99.44;93181.00;5134681;27;20051;-90
2020/12/24 11:51:01;;;;;;;;;;;;;;;7.27;96.50;93177.78;5117212;28;20101;-91
2020/12/24 11:53:27;;;;;;;42.47;20.95;;;;;;;7.43;96.88;93169.00;5115111;28;19916;-93
2020/12/24 11:55:55;;;;;;;45.35;21.55;;;;;;;7.66;97.81;93153.34;5114979;28;20043;-92
2020/12/24 11:58:21;;;;;;;46.13;21.30;;;;;;;7.92;96.79;93144.13;5112095;28;20093;-92